createdAt,value
2019-04-10T00:00:47.800Z,10.40
2019-04-10T00:03:39.081Z,10.40
2019-04-10T00:06:25.837Z,10.50
2019-04-10T00:09:13.509Z,10.50
2019-04-10T00:12:01.421Z,10.50
2019-04-10T00:14:49.245Z,10.50
2019-04-10T00:17:37.507Z,10.50
2019-04-10T00:20:25.230Z,10.40
2019-04-10T00:23:13.175Z,10.50
2019-04-10T00:26:01.447Z,10.50
2019-04-10T00:28:49.772Z,10.50
2019-04-10T00:31:38.147Z,10.40
2019-04-10T00:34:26.392Z,10.40
2019-04-10T00:37:21.877Z,10.30
2019-04-10T00:40:05.566Z,10.20
2019-04-10T00:42:53.757Z,10.20
2019-04-10T00:45:41.950Z,10.10
2019-04-10T00:48:30.111Z,10.00
2019-04-10T00:51:18.083Z,10.00
2019-04-10T00:54:05.967Z,9.90
2019-04-10T00:56:53.910Z,9.90
2019-04-10T00:59:42.147Z,9.80
2019-04-10T01:02:29.963Z,9.80
2019-04-10T01:05:17.702Z,9.80
2019-04-10T01:08:06.487Z,9.70
2019-04-10T01:10:54.781Z,9.70
2019-04-10T01:13:43.119Z,9.70
2019-04-10T01:16:31.362Z,9.60
2019-04-10T01:19:19.702Z,9.60
2019-04-10T01:22:07.640Z,9.70
2019-04-10T01:24:56.268Z,9.60
2019-04-10T01:27:44.551Z,9.70
2019-04-10T01:30:32.798Z,9.70
2019-04-10T01:33:21.061Z,9.50
2019-04-10T01:36:08.958Z,9.50
2019-04-10T01:38:57.864Z,9.50
2019-04-10T01:41:46.023Z,9.40
2019-04-10T01:44:34.027Z,9.20
2019-04-10T01:47:21.686Z,9.20
2019-04-10T01:50:10.460Z,9.10
2019-04-10T01:52:59.563Z,9.00
2019-04-10T01:55:47.826Z,9.00
2019-04-10T01:58:35.552Z,9.00
2019-04-10T02:01:24.874Z,8.90
2019-04-10T02:04:13.088Z,8.90
2019-04-10T02:07:02.086Z,8.90
2019-04-10T02:09:50.515Z,8.90
2019-04-10T02:12:38.847Z,8.90
2019-04-10T02:15:26.614Z,8.90
2019-04-10T02:18:14.592Z,9.00
2019-04-10T02:21:03.320Z,8.90
2019-04-10T02:23:52.324Z,8.90
2019-04-10T02:26:41.344Z,8.90
2019-04-10T02:29:29.332Z,8.80
2019-04-10T02:32:18.395Z,8.80
2019-04-10T02:35:10.525Z,8.80
2019-04-10T02:38:04.475Z,8.80
2019-04-10T02:40:49.858Z,8.80
2019-04-10T02:43:38.088Z,8.80
2019-04-10T02:46:27.131Z,8.80
2019-04-10T02:49:16.349Z,8.70
2019-04-10T02:52:04.518Z,8.70
2019-04-10T02:54:53.751Z,8.70
2019-04-10T02:57:43.512Z,8.70
2019-04-10T03:00:31.593Z,8.80
2019-04-10T03:03:20.086Z,8.90
2019-04-10T03:06:09.136Z,8.80
2019-04-10T03:09:13.797Z,8.70
2019-04-10T03:11:47.519Z,8.70
2019-04-10T03:14:36.673Z,8.70
2019-04-10T03:17:24.817Z,8.70
2019-04-10T03:20:12.737Z,8.70
2019-04-10T03:23:01.009Z,8.70
2019-04-10T03:25:48.836Z,8.60
2019-04-10T03:28:37.088Z,8.60
2019-04-10T03:31:27.133Z,8.60
2019-04-10T03:34:18.379Z,8.50
2019-04-10T03:37:06.306Z,8.60
2019-04-10T03:39:55.249Z,8.60
2019-04-10T03:42:43.383Z,8.60
2019-04-10T03:45:31.117Z,8.50
2019-04-10T03:48:20.073Z,8.50
2019-04-10T03:51:08.255Z,8.50
2019-04-10T03:53:56.422Z,8.50
2019-04-10T03:56:44.254Z,8.50
2019-04-10T03:59:32.677Z,8.50
2019-04-10T04:02:20.556Z,8.50
2019-04-10T04:05:08.687Z,8.50
2019-04-10T04:07:57.120Z,8.40
2019-04-10T04:10:45.165Z,8.40
2019-04-10T04:13:33.342Z,8.40
2019-04-10T04:16:21.368Z,8.30
2019-04-10T04:19:10.028Z,8.30
2019-04-10T04:21:58.467Z,8.30
2019-04-10T04:24:46.324Z,8.40
2019-04-10T04:27:35.510Z,8.30
2019-04-10T04:30:24.675Z,8.30
2019-04-10T04:33:12.996Z,8.20
2019-04-10T04:36:02.010Z,8.20
2019-04-10T04:38:51.171Z,8.20
2019-04-10T04:41:40.110Z,8.20
2019-04-10T04:44:27.743Z,8.20
2019-04-10T04:47:15.741Z,8.10
2019-04-10T04:50:04.194Z,8.20
2019-04-10T04:52:52.280Z,8.20
2019-04-10T04:55:40.121Z,8.20
2019-04-10T04:58:28.439Z,8.20
2019-04-10T05:01:16.973Z,8.30
2019-04-10T05:04:05.119Z,8.30
2019-04-10T05:06:52.904Z,8.20
2019-04-10T05:09:42.134Z,8.30
2019-04-10T05:12:30.088Z,8.30
2019-04-10T05:15:18.493Z,8.30
2019-04-10T05:18:06.547Z,8.20
2019-04-10T05:20:54.702Z,8.30
2019-04-10T05:23:42.891Z,8.30
2019-04-10T05:26:30.641Z,8.30
2019-04-10T05:29:19.568Z,8.40
2019-04-10T05:32:07.472Z,8.40
2019-04-10T05:34:55.029Z,8.50
2019-04-10T05:37:43.536Z,8.60
2019-04-10T05:40:33.100Z,8.80
2019-04-10T05:43:21.978Z,8.80
2019-04-10T05:46:10.354Z,8.80
2019-04-10T05:48:58.172Z,8.80
2019-04-10T05:51:46.187Z,8.90
2019-04-10T05:54:35.313Z,8.90
2019-04-10T05:57:24.510Z,8.90
2019-04-10T06:00:14.710Z,9.10
2019-04-10T06:03:02.420Z,9.10
2019-04-10T06:05:50.795Z,9.10
2019-04-10T06:08:39.450Z,9.20
2019-04-10T06:11:27.114Z,9.40
2019-04-10T06:14:15.774Z,9.50
2019-04-10T06:17:04.258Z,9.50
2019-04-10T06:19:53.108Z,9.70
2019-04-10T06:22:41.565Z,9.80
2019-04-10T06:25:31.257Z,10.00
2019-04-10T06:28:19.522Z,10.00
2019-04-10T06:31:08.343Z,10.10
2019-04-10T06:33:56.327Z,10.10
2019-04-10T06:36:44.188Z,10.00
2019-04-10T06:39:33.089Z,9.90
2019-04-10T06:42:20.880Z,10.00
2019-04-10T06:45:09.421Z,10.10
2019-04-10T06:47:58.400Z,10.10
2019-04-10T06:50:47.363Z,10.20
2019-04-10T06:53:35.420Z,10.10
2019-04-10T06:56:23.257Z,10.10
2019-04-10T06:59:12.177Z,10.10
2019-04-10T07:02:13.129Z,10.00
2019-04-10T07:04:54.871Z,10.00
2019-04-10T07:07:49.092Z,10.00
2019-04-10T07:10:40.801Z,10.00
2019-04-10T07:13:20.004Z,10.00
2019-04-10T07:16:09.551Z,10.00
2019-04-10T07:18:59.841Z,10.30
2019-04-10T07:21:47.384Z,10.40
2019-04-10T07:24:39.079Z,10.40
2019-04-10T07:27:24.821Z,10.40
2019-04-10T07:30:13.978Z,10.40
2019-04-10T07:33:01.597Z,10.50
2019-04-10T07:35:49.950Z,10.50
2019-04-10T07:38:37.809Z,10.60
2019-04-10T07:41:26.380Z,10.70
2019-04-10T07:44:14.463Z,10.90
2019-04-10T07:47:02.735Z,10.90
2019-04-10T07:52:50.034Z,11.20
2019-04-10T07:55:37.921Z,11.30
2019-04-10T07:58:25.595Z,11.50
2019-04-10T08:01:14.066Z,11.60
2019-04-10T08:04:02.175Z,11.70
2019-04-10T08:06:50.266Z,12.00
2019-04-10T08:09:38.184Z,12.10
2019-04-10T08:12:37.545Z,12.20
2019-04-10T08:15:16.588Z,12.20
2019-04-10T08:18:04.961Z,12.60
2019-04-10T08:20:53.173Z,12.70
2019-04-10T08:23:40.816Z,12.80
2019-04-10T08:26:28.573Z,12.60
2019-04-10T08:29:16.400Z,12.50
2019-04-10T08:32:05.499Z,12.50
2019-04-10T08:34:53.534Z,12.60
2019-04-10T08:37:41.386Z,12.50
2019-04-10T08:40:30.057Z,12.50
2019-04-10T08:43:18.205Z,12.40
2019-04-10T08:46:06.067Z,12.50
2019-04-10T08:48:53.952Z,12.50
2019-04-10T08:51:41.948Z,12.50
2019-04-10T08:54:29.771Z,12.60
2019-04-10T08:57:17.377Z,12.50
2019-04-10T09:00:08.146Z,12.30
2019-04-10T09:02:56.060Z,12.20
2019-04-10T09:05:44.913Z,12.10
2019-04-10T09:08:33.024Z,12.20
2019-04-10T09:11:26.179Z,12.10
2019-04-10T09:14:10.708Z,12.10
2019-04-10T09:16:58.673Z,12.20
2019-04-10T09:26:46.639Z,12.60
2019-04-10T09:36:15.207Z,12.80
2019-04-10T09:39:03.876Z,12.80
2019-04-10T09:58:15.186Z,13.50
2019-04-10T10:19:11.997Z,13.90
2019-04-10T10:55:47.637Z,15.70
2019-04-10T10:58:35.542Z,15.40
2019-04-10T11:01:24.149Z,15.30
2019-04-10T11:04:12.999Z,15.50
2019-04-10T11:07:01.280Z,15.70
2019-04-10T11:09:50.362Z,15.90
2019-04-10T11:12:38.413Z,15.90
2019-04-10T11:15:26.472Z,15.90
2019-04-10T11:18:14.493Z,16.10
2019-04-10T11:21:08.007Z,15.90
2019-04-10T11:23:53.217Z,15.50
2019-04-10T11:26:42.626Z,15.50
2019-04-10T11:29:31.445Z,15.10
2019-04-10T11:32:20.004Z,15.10
2019-04-10T11:35:08.193Z,14.80
2019-04-10T11:37:59.261Z,14.80
2019-04-10T11:40:45.764Z,15.00
2019-04-10T11:43:35.852Z,15.20
2019-04-10T11:46:28.254Z,15.20
2019-04-10T11:49:15.453Z,15.30
2019-04-10T11:52:04.016Z,15.20
2019-04-10T11:55:04.652Z,15.00
2019-04-10T11:57:45.903Z,15.40
2019-04-10T12:00:49.242Z,15.70
2019-04-10T12:03:31.354Z,15.90
2019-04-10T12:06:21.163Z,16.10
2019-04-10T12:09:45.271Z,16.20
2019-04-10T12:12:01.499Z,16.00
2019-04-10T12:14:50.057Z,16.30
2019-04-10T12:17:38.214Z,16.40
2019-04-10T12:20:27.090Z,16.50
2019-04-10T12:23:15.017Z,16.30
2019-04-10T12:26:03.352Z,16.30
2019-04-10T12:28:51.911Z,15.50
2019-04-10T12:31:40.002Z,15.50
2019-04-10T12:34:28.529Z,15.70
2019-04-10T12:37:17.508Z,16.10
2019-04-10T12:40:07.686Z,16.20
2019-04-10T12:42:56.633Z,16.20
2019-04-10T12:45:44.617Z,16.10
2019-04-10T12:48:32.662Z,16.10
2019-04-10T12:51:21.500Z,16.70
2019-04-10T12:54:09.989Z,16.70
2019-04-10T12:56:58.822Z,16.80
2019-04-10T12:59:47.818Z,16.90
2019-04-10T13:02:36.555Z,16.90
2019-04-10T13:05:25.126Z,17.10
2019-04-10T13:08:21.247Z,16.90
2019-04-10T13:11:02.704Z,16.40
2019-04-10T13:13:51.321Z,15.90
2019-04-10T13:16:41.145Z,16.10
2019-04-10T13:19:29.234Z,16.10
2019-04-10T13:22:17.977Z,16.10
2019-04-10T13:25:06.543Z,16.50
2019-04-10T13:27:54.940Z,16.50
2019-04-10T13:30:49.706Z,16.20
2019-04-10T13:33:32.958Z,16.20
2019-04-10T13:36:21.793Z,16.20
2019-04-10T13:39:12.886Z,16.10
2019-04-10T13:42:01.001Z,16.20
2019-04-10T13:44:48.904Z,16.40
2019-04-10T13:47:36.845Z,16.50
2019-04-10T13:50:24.700Z,16.30
2019-04-10T13:53:13.412Z,16.30
2019-04-10T13:56:01.760Z,16.20
2019-04-10T13:58:50.761Z,16.10
2019-04-10T14:01:38.507Z,16.20
2019-04-10T14:04:27.201Z,16.10
2019-04-10T14:07:15.810Z,16.00
2019-04-10T14:10:07.093Z,15.90
2019-04-10T14:12:56.403Z,16.10
2019-04-10T14:15:46.261Z,15.90
2019-04-10T14:18:34.900Z,15.90
2019-04-10T14:21:22.940Z,15.60
2019-04-10T14:24:11.765Z,15.30
2019-04-10T14:27:09.893Z,15.20
2019-04-10T15:02:43.665Z,14.90
2019-04-10T15:05:32.544Z,14.90
2019-04-10T15:08:21.767Z,14.80
2019-04-10T15:11:10.842Z,14.70
2019-04-10T15:13:59.174Z,14.70
2019-04-10T15:16:54.482Z,14.60
2019-04-10T15:19:36.688Z,14.70
2019-04-10T15:22:25.412Z,14.70
2019-04-10T15:25:13.574Z,14.70
2019-04-10T15:28:02.224Z,14.70
2019-04-10T15:30:50.818Z,14.40
2019-04-10T15:33:39.437Z,14.40
2019-04-10T15:36:28.303Z,14.30
2019-04-10T15:39:16.862Z,14.30
2019-04-10T15:42:05.796Z,14.40
2019-04-10T15:44:54.480Z,14.40
2019-04-10T15:47:50.591Z,14.50
2019-04-10T15:50:32.653Z,14.50
2019-04-10T15:53:20.268Z,14.70
2019-04-10T15:56:08.157Z,14.90
2019-04-10T15:58:56.853Z,15.00
2019-04-10T16:01:46.775Z,14.80
2019-04-10T16:04:35.793Z,14.70
2019-04-10T16:07:24.470Z,14.60
2019-04-10T16:10:32.910Z,14.50
2019-04-10T16:13:28.261Z,14.50
2019-04-10T16:16:36.918Z,14.40
2019-04-10T16:19:42.890Z,14.50
2019-04-10T16:22:33.424Z,14.50
2019-04-10T16:25:25.679Z,14.30
2019-04-10T16:28:14.535Z,14.20
2019-04-10T16:31:03.308Z,13.90
2019-04-10T16:33:52.507Z,13.90
2019-04-10T16:36:41.649Z,13.80
2019-04-10T16:39:30.011Z,13.80
2019-04-10T16:42:18.890Z,13.80
2019-04-10T16:45:07.952Z,13.80
2019-04-10T16:47:56.656Z,13.70
2019-04-10T16:50:45.683Z,13.80
2019-04-10T16:53:34.132Z,13.80
2019-04-10T16:56:21.986Z,13.90
2019-04-10T16:59:09.728Z,13.90
2019-04-10T17:01:57.560Z,13.90
2019-04-10T17:04:45.140Z,13.80
2019-04-10T17:07:32.833Z,13.70
2019-04-10T17:10:24.463Z,13.60
2019-04-10T17:13:12.239Z,13.60
2019-04-10T17:15:59.854Z,13.50
2019-04-10T17:18:47.604Z,13.50
2019-04-10T17:21:36.258Z,13.40
2019-04-10T17:24:25.069Z,13.30
2019-04-10T17:27:13.230Z,13.30
2019-04-10T17:30:01.403Z,13.20
2019-04-10T17:32:49.069Z,13.20
2019-04-10T17:35:37.916Z,13.00
2019-04-10T17:38:26.724Z,13.00
2019-04-10T17:41:15.491Z,13.00
2019-04-10T17:44:03.603Z,12.90
2019-04-10T17:46:51.500Z,12.80
2019-04-10T17:49:39.452Z,12.80
2019-04-10T17:52:27.261Z,12.80
2019-04-10T17:55:15.541Z,12.70
2019-04-10T17:58:03.429Z,12.60
2019-04-10T18:00:53.754Z,12.50
2019-04-10T18:03:49.329Z,12.50
2019-04-10T18:06:31.205Z,12.50
2019-04-10T18:09:19.238Z,12.50
2019-04-10T18:12:08.397Z,12.40
2019-04-10T18:14:59.675Z,12.40
2019-04-10T18:17:47.788Z,12.40
2019-04-10T18:23:35.533Z,12.30
2019-04-10T18:26:24.289Z,12.20
2019-04-10T18:29:12.258Z,12.20
2019-04-10T18:32:02.127Z,12.20
2019-04-10T18:34:50.222Z,12.10
2019-04-10T18:37:39.109Z,12.10
2019-04-10T18:40:27.290Z,12.10
2019-04-10T18:43:16.274Z,12.00
2019-04-10T18:46:12.267Z,11.90
2019-04-10T18:48:54.763Z,11.90
2019-04-10T18:51:42.609Z,11.80
2019-04-10T18:54:31.817Z,11.80
2019-04-10T18:57:20.169Z,11.70
2019-04-10T19:00:20.112Z,11.50
2019-04-10T19:03:13.043Z,11.40
2019-04-10T19:06:02.668Z,11.30
2019-04-10T19:09:04.699Z,11.10
2019-04-10T19:11:41.348Z,10.80
2019-04-10T19:14:30.300Z,10.60
2019-04-10T19:17:19.002Z,10.40
2019-04-10T19:20:08.919Z,10.30
2019-04-10T19:22:57.408Z,10.20
2019-04-10T19:25:45.642Z,10.20
2019-04-10T19:28:36.923Z,10.20
2019-04-10T19:31:24.837Z,10.20
2019-04-10T19:34:12.842Z,10.10
2019-04-10T19:37:00.624Z,10.00
2019-04-10T19:39:48.831Z,10.00
2019-04-10T19:42:37.644Z,10.00
2019-04-10T19:45:26.153Z,10.00
2019-04-10T19:48:15.008Z,9.90
2019-04-10T19:51:02.902Z,9.90
2019-04-10T19:53:51.211Z,9.90
2019-04-10T19:56:39.072Z,9.90
2019-04-10T19:59:27.147Z,9.80
2019-04-10T20:02:15.428Z,9.60
2019-04-10T20:05:03.915Z,9.50
2019-04-10T20:07:53.385Z,9.40
2019-04-10T20:10:41.543Z,9.40
2019-04-10T20:13:30.391Z,9.30
2019-04-10T20:16:20.112Z,9.20
2019-04-10T20:19:09.526Z,9.20
2019-04-10T20:21:58.505Z,9.10
2019-04-10T20:24:47.133Z,9.10
2019-04-10T20:27:36.159Z,9.10
2019-04-10T20:30:25.833Z,9.00
2019-04-10T20:33:20.909Z,8.90
2019-04-10T20:36:08.985Z,8.80
2019-04-10T20:38:57.088Z,8.70
2019-04-10T20:41:51.975Z,8.60
2019-04-10T20:44:34.688Z,8.40
2019-04-10T20:47:22.796Z,8.50
2019-04-10T20:50:11.942Z,8.70
2019-04-10T20:52:59.860Z,8.90
2019-04-10T20:55:48.170Z,9.10
2019-04-10T20:58:36.399Z,9.20
2019-04-10T21:01:24.561Z,9.40
2019-04-10T21:04:12.826Z,9.50
2019-04-10T21:07:00.954Z,9.40
2019-04-10T21:09:48.764Z,9.40
2019-04-10T21:12:36.621Z,9.40
2019-04-10T21:15:25.750Z,9.40
2019-04-10T21:18:13.591Z,9.50
2019-04-10T21:21:01.756Z,9.50
2019-04-10T21:23:49.650Z,9.50
2019-04-10T21:26:38.720Z,9.60
2019-04-10T21:29:44.208Z,9.50
2019-04-10T21:32:36.463Z,9.40
2019-04-10T21:35:27.112Z,9.40
2019-04-10T21:38:15.228Z,9.30
2019-04-10T21:41:05.328Z,9.30
2019-04-10T21:43:52.371Z,9.20
2019-04-10T21:46:40.992Z,9.20
2019-04-10T21:49:30.351Z,9.10
2019-04-10T21:52:18.657Z,9.00
2019-04-10T21:55:06.963Z,9.00
2019-04-10T21:57:55.440Z,8.90
2019-04-10T22:00:54.280Z,8.90
2019-04-10T22:03:41.932Z,8.80
2019-04-10T22:06:31.101Z,8.80
2019-04-10T22:09:30.547Z,8.70
2019-04-10T22:12:25.668Z,8.60
2019-04-10T22:15:14.945Z,8.50
2019-04-10T22:18:03.105Z,8.40
2019-04-10T22:20:50.757Z,8.30
2019-04-10T22:23:38.584Z,8.20
2019-04-10T22:26:26.281Z,8.10
2019-04-10T22:29:14.222Z,8.00
2019-04-10T22:32:02.044Z,8.00
2019-04-10T22:34:50.617Z,7.90
2019-04-10T22:37:38.384Z,7.90
2019-04-10T22:40:26.011Z,7.90
2019-04-10T22:43:13.813Z,7.80
2019-04-10T22:46:02.604Z,7.90
2019-04-10T22:48:50.716Z,7.90
2019-04-10T22:51:38.375Z,7.80
2019-04-10T22:54:26.246Z,7.80
2019-04-10T22:57:14.569Z,7.70
2019-04-10T23:00:03.336Z,7.60
2019-04-10T23:02:51.212Z,7.60
2019-04-10T23:05:38.809Z,7.40
2019-04-10T23:08:27.358Z,7.40
2019-04-10T23:11:15.269Z,7.30
2019-04-10T23:14:04.409Z,7.30
2019-04-10T23:16:52.599Z,7.20
2019-04-10T23:19:40.484Z,7.30
2019-04-10T23:22:29.364Z,7.20
2019-04-10T23:25:18.355Z,7.20
2019-04-10T23:28:07.334Z,7.10
2019-04-10T23:30:55.230Z,7.00
2019-04-10T23:33:44.035Z,7.00
2019-04-10T23:36:32.162Z,7.00
2019-04-10T23:39:20.072Z,6.90
2019-04-10T23:42:07.855Z,6.80
2019-04-10T23:44:57.439Z,6.80
2019-04-10T23:47:45.061Z,6.70
2019-04-10T23:50:33.084Z,6.60
2019-04-10T23:53:21.077Z,6.40
2019-04-10T23:56:08.672Z,6.40
2019-04-10T23:58:56.481Z,6.30
